createdAt,value
2022-12-17T00:01:06.136Z,92.16
2022-12-17T00:03:52.659Z,91.73
2022-12-17T00:06:38.348Z,91.87
2022-12-17T00:09:24.094Z,92.05
2022-12-17T00:12:09.835Z,91.89
2022-12-17T00:14:55.728Z,92.12
2022-12-17T00:17:42.139Z,92.32
2022-12-17T00:20:28.788Z,92.64
2022-12-17T00:23:21.807Z,92.72
2022-12-17T00:26:11.914Z,92.77
2022-12-17T00:28:57.842Z,92.79
2022-12-17T00:31:48.337Z,92.42
2022-12-17T00:34:34.388Z,92.84
2022-12-17T00:37:20.205Z,92.94
2022-12-17T00:40:05.562Z,93.55
2022-12-17T00:42:51.320Z,93.36
2022-12-17T00:45:37.564Z,94.08
2022-12-17T00:48:23.259Z,94.08
2022-12-17T00:51:08.679Z,93.74
2022-12-17T00:53:54.262Z,93.66
2022-12-17T00:56:40.491Z,93.87
2022-12-17T00:59:26.291Z,93.90
2022-12-17T01:02:11.746Z,94.27
2022-12-17T01:04:57.232Z,94.17
2022-12-17T01:07:42.921Z,94.41
2022-12-17T01:10:28.495Z,94.49
2022-12-17T01:13:16.550Z,94.73
2022-12-17T01:16:02.512Z,94.41
2022-12-17T01:18:48.136Z,94.60
2022-12-17T01:21:34.910Z,94.46
2022-12-17T01:24:21.017Z,94.88
2022-12-17T01:27:06.878Z,94.64
2022-12-17T01:29:52.715Z,94.11
2022-12-17T01:32:41.753Z,94.63
2022-12-17T01:35:27.266Z,95.18
2022-12-17T01:38:13.199Z,95.30
2022-12-17T01:41:00.323Z,95.32
2022-12-17T01:43:54.138Z,95.28
2022-12-17T01:46:41.316Z,95.69
2022-12-17T01:49:29.578Z,95.50
2022-12-17T01:52:15.631Z,95.66
2022-12-17T01:55:01.359Z,95.58
2022-12-17T01:57:47.165Z,95.93
2022-12-17T02:00:34.741Z,95.96
2022-12-17T02:03:23.259Z,95.72
2022-12-17T02:06:15.471Z,95.39
2022-12-17T02:09:28.675Z,95.80
2022-12-17T02:12:24.001Z,95.57
2022-12-17T02:15:52.477Z,95.42
2022-12-17T02:18:44.322Z,95.59
2022-12-17T02:21:31.097Z,95.50
2022-12-17T02:24:35.412Z,95.90
2022-12-17T02:27:26.791Z,95.92
2022-12-17T02:30:16.319Z,95.14
2022-12-17T02:33:04.737Z,95.70
2022-12-17T02:35:59.295Z,95.25
2022-12-17T02:38:49.815Z,95.67
2022-12-17T02:42:00.969Z,95.99
2022-12-17T02:44:48.904Z,96.53
2022-12-17T02:47:36.344Z,96.06
2022-12-17T02:50:36.822Z,96.04
2022-12-17T02:53:23.209Z,96.32
2022-12-17T02:56:22.795Z,96.12
2022-12-17T02:59:08.610Z,96.07
2022-12-17T03:01:54.246Z,96.32
2022-12-17T03:04:39.940Z,96.21
2022-12-17T03:07:25.019Z,96.30
2022-12-17T03:10:11.105Z,96.48
2022-12-17T03:13:00.546Z,96.39
2022-12-17T03:15:46.389Z,96.76
2022-12-17T03:18:32.259Z,96.89
2022-12-17T03:21:18.223Z,96.34
2022-12-17T03:24:03.512Z,96.51
2022-12-17T03:26:49.855Z,96.40
2022-12-17T03:29:35.305Z,96.70
2022-12-17T03:32:21.175Z,96.60
2022-12-17T03:35:06.622Z,96.89
2022-12-17T03:37:52.453Z,97.00
2022-12-17T03:40:38.219Z,96.57
2022-12-17T03:43:25.637Z,96.64
2022-12-17T03:46:20.275Z,96.53
2022-12-17T03:49:05.870Z,96.06
2022-12-17T03:51:51.077Z,95.85
2022-12-17T03:54:36.869Z,95.72
2022-12-17T03:57:22.367Z,96.06
2022-12-17T04:00:08.279Z,96.15
2022-12-17T04:02:59.377Z,96.51
2022-12-17T04:05:45.576Z,96.28
2022-12-17T04:08:30.996Z,95.98
2022-12-17T04:11:16.820Z,96.04
2022-12-17T04:14:01.875Z,95.77
2022-12-17T04:16:47.662Z,95.59
2022-12-17T04:19:32.856Z,95.01
2022-12-17T04:22:18.754Z,95.01
2022-12-17T04:25:04.157Z,94.78
2022-12-17T04:27:49.824Z,94.82
2022-12-17T04:30:35.477Z,94.87
2022-12-17T04:33:21.207Z,94.65
2022-12-17T04:36:06.714Z,94.52
2022-12-17T04:38:52.652Z,94.63
2022-12-17T04:41:38.304Z,94.39
2022-12-17T04:44:24.289Z,93.96
2022-12-17T04:47:09.734Z,93.52
2022-12-17T04:49:55.771Z,93.79
2022-12-17T04:52:41.006Z,93.80
2022-12-17T04:55:26.756Z,93.02
2022-12-17T04:58:12.395Z,92.95
2022-12-17T05:00:58.102Z,93.28
2022-12-17T05:03:43.701Z,93.42
2022-12-17T05:06:29.627Z,92.76
2022-12-17T05:09:15.014Z,92.71
2022-12-17T05:12:00.740Z,92.88
2022-12-17T05:14:46.210Z,92.28
2022-12-17T05:17:32.011Z,92.17
2022-12-17T05:20:17.484Z,92.12
2022-12-17T05:23:03.139Z,92.07
2022-12-17T05:25:48.680Z,92.33
2022-12-17T05:28:34.456Z,92.12
2022-12-17T05:31:20.543Z,92.43
2022-12-17T05:34:06.388Z,92.39
2022-12-17T05:36:51.472Z,92.09
2022-12-17T05:39:37.281Z,92.17
2022-12-17T05:42:22.722Z,92.33
2022-12-17T05:45:08.382Z,92.19
2022-12-17T05:47:53.943Z,91.86
2022-12-17T05:50:39.828Z,92.17
2022-12-17T05:53:25.371Z,92.25
2022-12-17T05:56:12.016Z,92.74
2022-12-17T05:58:58.492Z,92.28
2022-12-17T06:01:44.160Z,91.90
2022-12-17T06:04:29.765Z,91.87
2022-12-17T06:07:15.391Z,91.87
2022-12-17T06:10:00.861Z,91.93
2022-12-17T06:12:46.637Z,91.73
2022-12-17T06:15:32.142Z,92.10
2022-12-17T06:18:17.970Z,92.30
2022-12-17T06:21:04.698Z,92.45
2022-12-17T06:23:50.647Z,92.47
2022-12-17T06:26:35.967Z,92.52
2022-12-17T06:29:21.495Z,92.72
2022-12-17T06:32:06.982Z,92.67
2022-12-17T06:34:52.707Z,92.53
2022-12-17T06:37:38.551Z,92.15
2022-12-17T06:40:24.785Z,92.55
2022-12-17T06:43:14.274Z,92.50
2022-12-17T06:46:00.653Z,92.61
2022-12-17T06:48:45.862Z,93.05
2022-12-17T06:51:31.629Z,92.82
2022-12-17T06:54:17.283Z,92.28
2022-12-17T06:57:03.031Z,91.86
2022-12-17T06:59:48.446Z,91.90
2022-12-17T07:02:35.317Z,92.36
2022-12-17T07:05:20.707Z,92.55
2022-12-17T07:08:06.583Z,92.57
2022-12-17T07:10:52.015Z,91.38
2022-12-17T07:13:38.347Z,91.07
2022-12-17T07:16:24.640Z,90.80
2022-12-17T07:19:10.354Z,90.91
2022-12-17T07:21:55.963Z,90.91
2022-12-17T07:24:41.579Z,90.66
2022-12-17T07:27:27.184Z,90.98
2022-12-17T07:30:13.057Z,90.58
2022-12-17T07:32:58.574Z,90.85
2022-12-17T07:35:44.727Z,91.16
2022-12-17T07:38:30.079Z,91.60
2022-12-17T07:41:17.834Z,91.14
2022-12-17T07:44:03.142Z,91.25
2022-12-17T07:46:48.818Z,91.36
2022-12-17T07:49:34.396Z,91.18
2022-12-17T07:52:20.154Z,91.30
2022-12-17T07:55:05.661Z,90.53
2022-12-17T07:57:51.569Z,90.93
2022-12-17T08:00:56.942Z,91.16
2022-12-17T08:03:42.825Z,90.73
2022-12-17T08:06:28.844Z,90.61
2022-12-17T08:09:14.807Z,90.12
2022-12-17T08:12:00.397Z,90.30
2022-12-17T08:14:46.275Z,90.55
2022-12-17T08:17:31.756Z,90.67
2022-12-17T08:20:19.177Z,90.72
2022-12-17T08:23:06.557Z,90.16
2022-12-17T08:25:52.331Z,89.95
2022-12-17T08:28:53.130Z,90.23
2022-12-17T08:31:39.757Z,90.17
2022-12-17T08:34:25.212Z,90.02
2022-12-17T08:37:11.800Z,89.68
2022-12-17T08:39:56.954Z,90.20
2022-12-17T08:42:42.777Z,90.72
2022-12-17T08:45:28.699Z,90.09
2022-12-17T08:48:23.255Z,90.67
2022-12-17T08:51:08.970Z,90.23
2022-12-17T08:53:54.999Z,89.98
2022-12-17T08:56:40.397Z,89.28
2022-12-17T08:59:26.127Z,90.13
2022-12-17T09:02:11.772Z,90.02
2022-12-17T09:04:57.852Z,90.14
2022-12-17T09:07:43.678Z,90.12
2022-12-17T09:10:29.502Z,89.79
2022-12-17T10:45:11.029Z,88.90
2022-12-17T10:48:02.454Z,88.65
2022-12-17T10:50:51.315Z,88.20
2022-12-17T10:53:41.022Z,88.33
2022-12-17T10:56:38.773Z,87.64
2022-12-17T10:59:31.495Z,87.63
2022-12-17T11:02:18.356Z,88.26
2022-12-17T11:05:12.018Z,88.47
2022-12-17T11:08:02.776Z,87.74
2022-12-17T11:10:52.215Z,86.36
2022-12-17T11:13:51.778Z,87.05
2022-12-17T11:16:42.708Z,86.97
2022-12-17T11:19:28.237Z,88.00
2022-12-17T11:22:20.450Z,87.30
2022-12-17T11:25:31.971Z,87.55
2022-12-17T11:28:32.869Z,86.65
2022-12-17T11:31:30.145Z,86.51
2022-12-17T11:34:29.333Z,87.41
2022-12-17T11:37:24.787Z,87.42
2022-12-17T11:40:26.929Z,87.51
2022-12-17T11:43:33.650Z,87.64
2022-12-17T11:46:57.352Z,87.64
2022-12-17T11:49:50.821Z,86.93
2022-12-17T11:53:08.036Z,88.31
2022-12-17T11:56:11.638Z,87.28
2022-12-17T11:59:03.730Z,87.48
2022-12-17T12:02:10.347Z,87.49
2022-12-17T12:05:22.994Z,87.51
2022-12-17T12:08:40.205Z,88.16
2022-12-17T12:11:42.745Z,88.68
2022-12-17T12:14:54.333Z,88.87
2022-12-17T12:18:12.558Z,87.80
2022-12-17T12:21:25.857Z,87.96
2022-12-17T12:24:38.760Z,87.75
2022-12-17T12:27:42.643Z,87.75
2022-12-17T12:30:35.442Z,88.00
2022-12-17T12:33:56.987Z,88.00
2022-12-17T12:36:45.725Z,87.62
2022-12-17T12:39:38.038Z,87.68
2022-12-17T12:42:42.721Z,87.63
2022-12-17T12:49:05.826Z,87.24
2022-12-17T12:51:56.706Z,87.21
2022-12-17T12:55:12.490Z,87.53
2022-12-17T12:58:13.292Z,88.34
2022-12-17T13:01:11.430Z,88.22
2022-12-17T13:04:03.266Z,87.67
2022-12-17T13:06:42.251Z,87.48
2022-12-17T13:09:15.344Z,87.46
2022-12-17T13:12:02.473Z,87.61
2022-12-17T13:14:44.037Z,87.34
2022-12-17T13:17:17.311Z,87.99
2022-12-17T13:20:00.411Z,88.42
2022-12-17T13:22:27.177Z,88.70
2022-12-17T13:24:57.895Z,89.09
2022-12-17T13:27:34.499Z,89.08
2022-12-17T13:30:21.531Z,88.31
2022-12-17T13:33:13.237Z,88.31
2022-12-17T13:35:49.122Z,88.91
2022-12-17T13:38:19.030Z,89.33
2022-12-17T13:41:10.526Z,89.46
2022-12-17T13:43:43.990Z,89.24
2022-12-17T13:46:25.247Z,89.21
2022-12-17T13:49:00.299Z,88.88
2022-12-17T13:51:30.230Z,88.85
2022-12-17T13:53:59.739Z,88.98
2022-12-17T13:56:31.028Z,89.74
2022-12-17T13:59:03.158Z,88.65
2022-12-17T14:01:44.303Z,89.38
2022-12-17T14:04:27.523Z,89.84
2022-12-17T14:06:58.383Z,89.76
2022-12-17T14:09:36.587Z,89.51
2022-12-17T14:12:24.713Z,89.72
2022-12-17T14:15:01.339Z,90.08
2022-12-17T14:17:35.726Z,89.76
2022-12-17T14:20:04.251Z,90.27
2022-12-17T14:22:42.862Z,90.28
2022-12-17T14:25:18.505Z,89.59
2022-12-17T14:28:00.405Z,89.30
2022-12-17T14:30:33.064Z,89.10
2022-12-17T14:33:00.434Z,89.38
2022-12-17T14:35:36.167Z,89.03
2022-12-17T14:38:04.917Z,89.43
2022-12-17T14:40:32.322Z,88.85
2022-12-17T14:43:01.077Z,88.92
2022-12-17T14:45:29.243Z,89.09
2022-12-17T14:48:01.845Z,89.26
2022-12-17T14:50:33.443Z,89.20
2022-12-17T14:53:03.407Z,89.08
2022-12-17T14:55:33.450Z,89.44
2022-12-17T14:58:29.667Z,89.70
2022-12-17T15:01:04.031Z,89.29
2022-12-17T15:03:33.651Z,89.46
2022-12-17T15:06:03.554Z,89.30
2022-12-17T15:08:36.078Z,89.24
2022-12-17T15:11:03.746Z,89.29
2022-12-17T15:13:31.333Z,89.00
2022-12-17T15:15:58.244Z,89.17
2022-12-17T15:18:25.624Z,89.61
2022-12-17T15:21:11.745Z,89.59
2022-12-17T15:23:43.228Z,89.79
2022-12-17T15:26:11.380Z,90.12
2022-12-17T15:28:39.107Z,89.42
2022-12-17T15:31:06.264Z,89.35
2022-12-17T15:33:33.411Z,89.32
2022-12-17T15:36:00.246Z,89.46
2022-12-17T15:38:27.788Z,89.97
2022-12-17T15:40:54.988Z,90.04
2022-12-17T15:43:22.447Z,90.43
2022-12-17T15:45:51.856Z,90.31
2022-12-17T15:48:21.666Z,90.28
2022-12-17T15:50:48.920Z,90.46
2022-12-17T15:53:16.806Z,90.05
2022-12-17T15:55:43.689Z,90.22
2022-12-17T15:58:11.652Z,90.58
2022-12-17T16:00:38.885Z,90.12
2022-12-17T16:03:06.194Z,90.33
2022-12-17T16:05:33.374Z,90.06
2022-12-17T16:08:02.596Z,89.96
2022-12-17T16:10:30.199Z,90.07
2022-12-17T16:12:57.986Z,90.53
2022-12-17T16:15:24.889Z,90.09
2022-12-17T16:17:52.066Z,90.60
2022-12-17T16:20:20.022Z,90.17
2022-12-17T16:22:47.195Z,89.95
2022-12-17T16:25:14.156Z,90.20
2022-12-17T16:27:41.588Z,90.69
2022-12-17T16:30:09.645Z,90.63
2022-12-17T16:32:37.461Z,90.90
2022-12-17T16:35:05.321Z,90.87
2022-12-17T16:37:32.630Z,91.51
2022-12-17T16:40:00.311Z,91.12
2022-12-17T16:42:28.111Z,91.07
2022-12-17T16:44:55.116Z,91.35
2022-12-17T16:47:22.384Z,91.43
2022-12-17T16:49:52.340Z,90.89
2022-12-17T16:52:19.438Z,90.69
2022-12-17T16:54:46.297Z,90.94
2022-12-17T16:57:13.486Z,91.14
2022-12-17T16:59:40.352Z,90.88
2022-12-17T17:02:16.811Z,90.75
2022-12-17T17:04:43.938Z,90.45
2022-12-17T17:07:11.112Z,89.55
2022-12-17T17:09:38.649Z,89.47
2022-12-17T17:12:07.605Z,89.81
2022-12-17T17:14:34.526Z,89.90
2022-12-17T17:17:01.626Z,90.09
2022-12-17T17:19:28.515Z,89.86
2022-12-17T17:21:55.673Z,89.52
2022-12-17T17:24:25.591Z,89.52
2022-12-17T17:26:54.121Z,90.23
2022-12-17T17:29:21.476Z,90.52
2022-12-17T17:34:35.425Z,89.74
2022-12-17T17:37:02.598Z,90.27
2022-12-17T17:39:33.181Z,90.06
2022-12-17T17:42:01.032Z,90.01
2022-12-17T17:44:27.848Z,90.20
2022-12-17T17:46:55.119Z,89.91
2022-12-17T17:49:22.355Z,90.37
2022-12-17T17:54:38.221Z,90.94
2022-12-17T17:57:05.395Z,89.93
2022-12-17T17:59:34.042Z,89.33
2022-12-17T18:02:02.733Z,89.87
2022-12-17T18:04:30.447Z,89.02
2022-12-17T18:09:44.796Z,89.15
2022-12-17T18:12:30.479Z,88.97
2022-12-17T18:15:13.815Z,89.22
2022-12-17T18:17:43.245Z,89.38
2022-12-17T18:20:12.436Z,89.19
2022-12-17T18:22:39.802Z,89.01
2022-12-17T18:25:06.841Z,89.43
2022-12-17T18:27:34.021Z,89.80
2022-12-17T18:30:00.857Z,89.92
2022-12-17T18:32:28.394Z,90.15
2022-12-17T18:34:55.238Z,90.06
2022-12-17T18:37:22.446Z,90.34
2022-12-17T18:39:49.426Z,91.20
2022-12-17T18:42:35.087Z,90.88
2022-12-17T18:45:03.361Z,90.92
2022-12-17T18:47:30.666Z,90.72
2022-12-17T18:49:57.608Z,91.04
2022-12-17T18:52:24.911Z,91.20
2022-12-17T18:54:51.807Z,91.37
2022-12-17T18:57:19.039Z,91.96
2022-12-17T18:59:45.995Z,92.35
2022-12-17T19:02:13.464Z,92.04
2022-12-17T19:04:40.626Z,92.66
2022-12-17T19:07:07.765Z,92.79
2022-12-17T19:09:35.743Z,92.81
2022-12-17T19:12:05.037Z,92.91
2022-12-17T19:14:32.406Z,92.67
2022-12-17T19:16:59.878Z,92.72
2022-12-17T19:19:26.834Z,92.91
2022-12-17T19:21:55.345Z,92.72
2022-12-17T19:24:23.108Z,92.68
2022-12-17T19:26:51.567Z,93.04
2022-12-17T19:29:20.220Z,93.05
2022-12-17T19:31:47.795Z,92.93
2022-12-17T19:34:16.368Z,93.08
2022-12-17T19:36:44.380Z,93.08
2022-12-17T19:39:13.545Z,93.19
2022-12-17T19:41:40.961Z,92.92
2022-12-17T19:44:12.731Z,92.95
2022-12-17T19:46:39.913Z,92.79
2022-12-17T19:49:08.523Z,92.97
2022-12-17T19:51:39.625Z,93.33
2022-12-17T19:54:09.258Z,93.49
2022-12-17T19:56:36.920Z,93.63
2022-12-17T19:59:07.667Z,93.74
2022-12-17T20:01:37.807Z,93.68
2022-12-17T20:04:05.741Z,93.42
2022-12-17T20:06:34.642Z,93.84
2022-12-17T20:09:04.171Z,94.14
2022-12-17T20:11:34.846Z,93.63
2022-12-17T20:14:01.905Z,93.37
2022-12-17T20:16:31.394Z,93.54
2022-12-17T20:18:59.677Z,93.87
2022-12-17T20:21:27.425Z,93.65
2022-12-17T20:23:54.649Z,93.33
2022-12-17T20:26:22.237Z,92.99
2022-12-17T20:28:49.152Z,92.88
2022-12-17T20:31:16.879Z,93.38
2022-12-17T20:33:44.326Z,93.45
2022-12-17T20:36:14.910Z,93.47
2022-12-17T20:38:43.609Z,93.17
2022-12-17T20:41:11.085Z,93.03
2022-12-17T20:43:38.338Z,93.21
2022-12-17T20:46:06.293Z,93.56
2022-12-17T20:48:33.310Z,93.83
2022-12-17T20:51:05.389Z,93.77
2022-12-17T20:53:33.738Z,94.11
2022-12-17T20:56:07.096Z,93.91
2022-12-17T20:58:34.185Z,93.74
2022-12-17T21:01:05.874Z,93.77
2022-12-17T21:03:33.696Z,93.61
2022-12-17T21:06:06.916Z,93.65
2022-12-17T21:08:34.132Z,94.30
2022-12-17T21:11:01.590Z,94.47
2022-12-17T21:13:31.315Z,94.34
2022-12-17T21:16:00.895Z,93.89
2022-12-17T21:18:29.731Z,94.00
2022-12-17T21:21:02.793Z,93.95
2022-12-17T21:23:30.873Z,94.01
2022-12-17T21:26:22.925Z,94.03
2022-12-17T21:28:51.776Z,94.35
2022-12-17T21:31:24.475Z,93.61
2022-12-17T21:33:54.193Z,93.70
2022-12-17T21:36:22.949Z,93.74
2022-12-17T21:38:51.518Z,93.78
2022-12-17T21:41:32.727Z,94.16
2022-12-17T21:44:02.328Z,94.20
2022-12-17T21:46:30.642Z,93.92
2022-12-17T21:48:59.346Z,94.16
2022-12-17T21:51:27.418Z,94.74
2022-12-17T21:53:57.426Z,94.41
2022-12-17T21:56:25.203Z,93.97
2022-12-17T21:58:57.902Z,93.59
2022-12-17T22:01:27.846Z,93.61
2022-12-17T22:03:58.442Z,93.49
2022-12-17T22:06:32.010Z,93.60
2022-12-17T22:09:03.753Z,93.00
2022-12-17T22:11:38.894Z,93.00
2022-12-17T22:14:09.460Z,93.22
2022-12-17T22:16:40.353Z,93.62
2022-12-17T22:19:10.277Z,93.73
2022-12-17T22:21:39.883Z,93.52
2022-12-17T22:24:07.136Z,92.72
2022-12-17T22:26:34.670Z,92.44
2022-12-17T22:29:01.669Z,92.78
2022-12-17T22:31:48.157Z,92.68
2022-12-17T22:35:44.345Z,92.12
2022-12-17T22:38:44.095Z,92.23
2022-12-17T22:43:11.063Z,92.75
2022-12-17T22:44:44.520Z,93.36
2022-12-17T22:45:43.887Z,93.37
2022-12-17T22:48:12.762Z,93.40
2022-12-17T22:50:48.463Z,92.85
2022-12-17T22:53:18.699Z,92.65
2022-12-17T22:55:45.912Z,92.36
2022-12-17T22:58:13.199Z,92.09
2022-12-17T23:00:40.028Z,91.82
2022-12-17T23:03:07.282Z,91.70
2022-12-17T23:05:34.390Z,91.88
2022-12-17T23:08:01.716Z,91.97
2022-12-17T23:10:28.640Z,92.58
2022-12-17T23:12:56.158Z,93.15
2022-12-17T23:15:24.637Z,93.27
2022-12-17T23:17:53.182Z,93.61
2022-12-17T23:20:20.112Z,93.18
2022-12-17T23:22:47.638Z,93.28
2022-12-17T23:25:15.539Z,93.24
2022-12-17T23:27:43.527Z,93.32
2022-12-17T23:30:11.869Z,92.85
2022-12-17T23:32:39.071Z,92.65
2022-12-17T23:35:06.469Z,91.65
2022-12-17T23:37:39.533Z,91.69
2022-12-17T23:40:09.268Z,91.67
2022-12-17T23:42:36.438Z,91.19
2022-12-17T23:45:04.075Z,91.54
2022-12-17T23:47:31.879Z,91.65
2022-12-17T23:49:58.783Z,91.61
2022-12-17T23:52:25.952Z,91.33
2022-12-17T23:54:52.867Z,91.45
2022-12-17T23:57:20.093Z,90.92
2022-12-17T23:59:46.944Z,90.89
